createdAt,value
2023-05-19T00:00:25.495Z,100.00
2023-05-19T00:05:28.122Z,99.86
2023-05-19T00:10:31.748Z,100.00
2023-05-19T00:15:33.516Z,100.00
2023-05-19T00:20:35.080Z,100.00
2023-05-19T00:25:36.481Z,100.00
2023-05-19T00:30:37.830Z,100.00
2023-05-19T00:35:40.630Z,100.00
2023-05-19T00:40:42.145Z,100.00
2023-05-19T00:45:43.520Z,100.00
2023-05-19T00:50:45.583Z,100.00
2023-05-19T00:55:47.683Z,100.00
2023-05-19T01:00:49.893Z,100.00
2023-05-19T01:05:53.734Z,100.00
2023-05-19T01:10:55.328Z,100.00
2023-05-19T01:16:01.588Z,100.00
2023-05-19T01:21:26.149Z,100.00
2023-05-19T01:26:27.449Z,100.00
2023-05-19T01:31:28.926Z,100.00
2023-05-19T01:36:31.943Z,100.00
2023-05-19T01:41:34.571Z,100.00
2023-05-19T01:46:36.414Z,100.00
2023-05-19T01:51:38.092Z,100.00
2023-05-19T01:56:47.130Z,100.00
2023-05-19T02:01:48.495Z,100.00
2023-05-19T02:06:49.993Z,100.00
2023-05-19T02:11:51.297Z,100.00
2023-05-19T02:16:53.236Z,100.00
2023-05-19T02:21:54.876Z,100.00
2023-05-19T02:26:56.231Z,100.00
2023-05-19T02:31:58.834Z,100.00
2023-05-19T02:37:01.237Z,100.00
2023-05-19T02:42:02.677Z,100.00
2023-05-19T02:47:04.181Z,100.00
2023-05-19T02:52:05.822Z,100.00
2023-05-19T02:57:07.981Z,100.00
2023-05-19T03:02:09.362Z,100.00
2023-05-19T03:07:11.047Z,100.00
2023-05-19T03:12:12.537Z,100.00
2023-05-19T03:17:13.922Z,100.00
2023-05-19T03:22:15.422Z,100.00
2023-05-19T03:27:16.795Z,100.00
2023-05-19T03:32:18.207Z,100.00
2023-05-19T03:37:19.564Z,100.00
2023-05-19T03:42:21.119Z,100.00
2023-05-19T03:47:22.552Z,100.00
2023-05-19T03:52:23.889Z,100.00
2023-05-19T03:57:25.335Z,100.00
2023-05-19T04:02:26.802Z,100.00
2023-05-19T04:07:28.207Z,100.00
2023-05-19T04:12:29.585Z,100.00
2023-05-19T04:17:31.325Z,100.00
2023-05-19T04:22:32.784Z,100.00
2023-05-19T04:27:36.632Z,100.00
2023-05-19T04:32:39.598Z,100.00
2023-05-19T04:37:41.127Z,100.00
2023-05-19T04:42:42.819Z,100.00
2023-05-19T04:47:44.493Z,100.00
2023-05-19T04:52:45.901Z,100.00
2023-05-19T04:57:47.355Z,100.00
2023-05-19T05:02:49.109Z,100.00
2023-05-19T05:07:50.810Z,100.00
2023-05-19T05:12:52.352Z,100.00
2023-05-19T05:17:53.870Z,100.00
2023-05-19T05:22:55.829Z,100.00
2023-05-19T05:27:58.908Z,100.00
2023-05-19T05:33:00.749Z,97.13
2023-05-19T05:38:02.434Z,78.58
2023-05-19T05:43:03.828Z,66.42
2023-05-19T05:48:05.536Z,61.04
2023-05-19T05:53:07.954Z,54.76
2023-05-19T05:58:11.174Z,57.73
2023-05-19T06:03:13.451Z,62.38
2023-05-19T06:08:15.166Z,56.40
2023-05-19T06:13:22.252Z,56.76
2023-05-19T06:18:23.695Z,61.11
2023-05-19T06:23:26.769Z,58.78
2023-05-19T06:28:28.155Z,54.05
2023-05-19T06:33:29.569Z,53.19
2023-05-19T06:38:31.489Z,48.28
2023-05-19T06:43:32.842Z,44.86
2023-05-19T06:48:34.216Z,44.83
2023-05-19T06:53:35.744Z,43.08
2023-05-19T06:58:37.141Z,44.28
2023-05-19T07:03:38.719Z,47.34
2023-05-19T07:08:40.226Z,44.12
2023-05-19T07:13:42.061Z,47.41
2023-05-19T07:18:43.437Z,41.06
2023-05-19T07:23:44.936Z,46.12
2023-05-19T07:28:46.307Z,44.29
2023-05-19T07:33:47.662Z,41.41
2023-05-19T07:38:49.093Z,36.60
2023-05-19T07:43:50.468Z,36.93
2023-05-19T07:48:51.878Z,31.98
2023-05-19T07:53:53.238Z,35.83
2023-05-19T07:58:54.629Z,37.09
2023-05-19T08:03:56.055Z,35.12
2023-05-19T08:08:57.471Z,35.79
2023-05-19T08:13:58.972Z,38.89
2023-05-19T08:19:02.752Z,34.26
2023-05-19T08:24:04.405Z,34.66
2023-05-19T08:29:05.880Z,37.07
2023-05-19T08:34:07.332Z,33.34
2023-05-19T08:39:08.714Z,36.55
2023-05-19T08:44:10.144Z,35.22
2023-05-19T08:49:13.014Z,35.07
2023-05-19T08:54:15.762Z,29.76
2023-05-19T08:59:17.405Z,34.70
2023-05-19T09:04:19.594Z,32.20
2023-05-19T09:09:22.222Z,31.87
2023-05-19T09:14:23.943Z,31.66
2023-05-19T09:19:28.803Z,30.62
2023-05-19T09:24:30.263Z,29.00
2023-05-19T09:29:31.944Z,27.73
2023-05-19T09:34:33.293Z,32.17
2023-05-19T09:39:34.931Z,36.90
2023-05-19T09:44:36.298Z,35.32
2023-05-19T09:49:38.643Z,35.29
2023-05-19T09:54:40.349Z,38.08
2023-05-19T09:59:42.302Z,32.65
2023-05-19T10:04:43.910Z,27.47
2023-05-19T10:09:45.998Z,31.61
2023-05-19T10:14:47.765Z,31.74
2023-05-19T10:19:49.552Z,27.18
2023-05-19T10:24:50.962Z,31.68
2023-05-19T10:29:54.359Z,25.75
2023-05-19T10:35:09.167Z,30.03
2023-05-19T10:40:16.958Z,25.94
2023-05-19T10:45:22.527Z,27.90
2023-05-19T10:50:23.984Z,27.44
2023-05-19T10:55:44.109Z,26.66
2023-05-19T11:00:45.546Z,25.46
2023-05-19T11:05:50.030Z,25.14
2023-05-19T11:10:51.984Z,24.46
2023-05-19T11:15:53.488Z,26.82
2023-05-19T11:21:00.799Z,28.46
2023-05-19T11:26:02.575Z,29.00
2023-05-19T11:31:07.994Z,27.22
2023-05-19T11:36:10.798Z,28.66
2023-05-19T11:41:15.565Z,30.51
2023-05-19T11:46:17.959Z,31.59
2023-05-19T11:51:21.058Z,29.99
2023-05-19T11:56:22.472Z,30.10
2023-05-19T12:01:26.897Z,31.30
2023-05-19T12:06:29.171Z,30.34
2023-05-19T12:11:31.755Z,28.06
2023-05-19T12:16:34.599Z,29.37
2023-05-19T12:21:36.175Z,30.91
2023-05-19T12:26:37.595Z,29.36
2023-05-19T12:31:39.140Z,32.07
2023-05-19T12:36:41.178Z,32.20
2023-05-19T12:41:44.763Z,30.28
2023-05-19T12:46:46.288Z,30.56
2023-05-19T12:51:54.057Z,30.44
2023-05-19T12:56:57.499Z,29.75
2023-05-19T13:01:59.097Z,31.51
2023-05-19T13:07:00.548Z,30.33
2023-05-19T13:12:02.326Z,29.24
2023-05-19T13:17:04.046Z,31.19
2023-05-19T13:22:05.475Z,31.91
2023-05-19T13:27:06.957Z,32.27
2023-05-19T13:32:08.619Z,29.45
2023-05-19T13:37:11.443Z,28.95
2023-05-19T13:42:12.921Z,32.14
2023-05-19T13:47:14.354Z,30.81
2023-05-19T13:52:15.755Z,30.37
2023-05-19T13:57:17.124Z,31.27
2023-05-19T14:02:19.118Z,29.97
2023-05-19T14:07:21.170Z,28.49
2023-05-19T14:12:27.632Z,29.41
2023-05-19T14:17:36.121Z,30.08
2023-05-19T14:22:37.550Z,29.71
2023-05-19T14:27:40.116Z,31.75
2023-05-19T14:32:41.980Z,32.00
2023-05-19T14:37:43.617Z,31.84
2023-05-19T14:42:44.973Z,31.05
2023-05-19T14:47:47.738Z,32.43
2023-05-19T14:52:49.415Z,32.92
2023-05-19T14:57:50.869Z,32.30
2023-05-19T15:02:52.851Z,32.34
2023-05-19T15:07:54.233Z,31.18
2023-05-19T15:12:57.554Z,30.36
2023-05-19T15:17:58.973Z,32.45
2023-05-19T15:23:00.490Z,31.62
2023-05-19T15:28:01.970Z,31.57
2023-05-19T15:33:03.367Z,30.55
2023-05-19T15:38:06.317Z,30.59
2023-05-19T15:43:07.699Z,32.84
2023-05-19T15:48:09.097Z,33.50
2023-05-19T15:53:10.649Z,33.53
2023-05-19T15:58:13.735Z,33.01
2023-05-19T16:03:15.282Z,33.71
2023-05-19T16:08:16.737Z,34.15
2023-05-19T16:13:18.555Z,34.29
2023-05-19T16:18:19.984Z,35.20
2023-05-19T16:23:21.424Z,36.05
2023-05-19T16:28:24.911Z,35.20
2023-05-19T16:33:28.332Z,35.12
2023-05-19T16:38:29.699Z,35.17
2023-05-19T16:43:33.413Z,35.61
2023-05-19T16:48:34.782Z,35.99
2023-05-19T16:53:36.146Z,36.62
2023-05-19T16:58:37.547Z,38.09
2023-05-19T17:03:39.042Z,37.81
2023-05-19T17:08:40.575Z,37.71
2023-05-19T17:13:43.829Z,38.93
2023-05-19T17:18:45.308Z,37.79
2023-05-19T17:23:46.746Z,39.37
2023-05-19T17:28:48.501Z,39.66
2023-05-19T17:33:50.151Z,38.93
2023-05-19T17:38:51.518Z,39.82
2023-05-19T17:43:53.038Z,39.35
2023-05-19T17:48:54.378Z,39.79
2023-05-19T17:53:55.913Z,40.02
2023-05-19T17:58:57.466Z,39.73
2023-05-19T18:03:59.022Z,40.79
2023-05-19T18:09:01.198Z,40.38
2023-05-19T18:14:02.697Z,41.66
2023-05-19T18:19:04.105Z,42.43
2023-05-19T18:24:05.934Z,42.49
2023-05-19T18:29:10.961Z,44.17
2023-05-19T18:34:13.901Z,42.35
2023-05-19T18:39:15.301Z,43.43
2023-05-19T18:44:16.752Z,44.70
2023-05-19T18:49:18.344Z,45.14
2023-05-19T18:54:21.612Z,44.68
2023-05-19T18:59:24.457Z,45.73
2023-05-19T19:04:25.846Z,46.86
2023-05-19T19:09:27.222Z,48.02
2023-05-19T19:14:28.601Z,49.37
2023-05-19T19:19:30.556Z,48.74
2023-05-19T19:24:32.205Z,50.23
2023-05-19T19:29:33.541Z,52.64
2023-05-19T19:34:34.871Z,52.04
2023-05-19T19:39:36.225Z,51.24
2023-05-19T19:44:37.582Z,57.39
2023-05-19T19:49:38.957Z,62.60
2023-05-19T19:54:40.370Z,64.62
2023-05-19T19:59:41.714Z,69.91
2023-05-19T20:04:43.107Z,69.97
2023-05-19T20:09:44.629Z,68.36
2023-05-19T20:14:46.584Z,68.41
2023-05-19T20:19:48.174Z,70.05
2023-05-19T20:24:49.505Z,72.29
2023-05-19T20:29:50.973Z,75.90
2023-05-19T20:34:52.353Z,74.22
2023-05-19T20:39:53.722Z,74.30
2023-05-19T20:44:55.108Z,76.01
2023-05-19T20:49:56.461Z,75.03
2023-05-19T20:54:57.821Z,77.04
2023-05-19T20:59:59.381Z,76.81
2023-05-19T21:05:01.031Z,80.23
2023-05-19T21:10:02.506Z,82.25
2023-05-19T21:15:05.937Z,81.16
2023-05-19T21:20:07.775Z,82.78
2023-05-19T21:25:09.227Z,79.05
2023-05-19T21:30:11.070Z,79.99
2023-05-19T21:35:12.434Z,80.29
2023-05-19T21:40:13.758Z,80.99
2023-05-19T21:45:15.174Z,82.91
2023-05-19T21:50:17.430Z,80.98
2023-05-19T21:55:18.776Z,82.76
2023-05-19T22:00:20.196Z,81.98
2023-05-19T22:05:21.895Z,81.91
2023-05-19T22:10:23.309Z,82.04
2023-05-19T22:15:24.679Z,81.39
2023-05-19T22:20:26.012Z,84.07
2023-05-19T22:25:27.685Z,86.72
2023-05-19T22:30:29.119Z,82.63
2023-05-19T22:35:30.472Z,85.73
2023-05-19T22:40:32.510Z,86.30
2023-05-19T22:45:35.350Z,86.90
2023-05-19T22:50:36.934Z,90.58
2023-05-19T22:55:38.330Z,90.27
2023-05-19T23:00:39.692Z,91.32
2023-05-19T23:05:41.443Z,89.79
2023-05-19T23:10:42.804Z,90.84
2023-05-19T23:15:44.181Z,92.55
2023-05-19T23:20:45.754Z,91.86
2023-05-19T23:25:47.088Z,93.11
2023-05-19T23:30:48.422Z,93.45
2023-05-19T23:35:49.800Z,91.23
2023-05-19T23:40:51.179Z,91.23
2023-05-19T23:45:52.603Z,92.21
2023-05-19T23:50:53.963Z,92.71
2023-05-19T23:55:56.458Z,93.44
